createdAt,value
2023-04-18T00:03:41.730Z,97.54
2023-04-18T00:08:42.054Z,97.23
2023-04-18T00:13:42.761Z,97.54
2023-04-18T00:18:43.553Z,97.79
2023-04-18T00:23:44.211Z,97.59
2023-04-18T00:28:44.938Z,97.89
2023-04-18T00:33:45.677Z,98.00
2023-04-18T00:38:46.404Z,97.79
2023-04-18T00:43:47.103Z,98.00
2023-04-18T00:48:47.820Z,97.79
2023-04-18T00:53:48.544Z,98.00
2023-04-18T00:58:49.265Z,97.79
2023-04-18T01:03:50.105Z,97.69
2023-04-18T01:08:50.863Z,97.54
2023-04-18T01:13:51.575Z,96.97
2023-04-18T01:18:52.355Z,97.07
2023-04-18T01:23:53.017Z,97.33
2023-04-18T01:28:53.748Z,96.82
2023-04-18T01:33:54.459Z,97.02
2023-04-18T01:38:55.195Z,96.76
2023-04-18T01:43:55.918Z,97.49
2023-04-18T01:48:56.653Z,97.38
2023-04-18T01:53:57.355Z,97.59
2023-04-18T01:58:58.087Z,97.28
2023-04-18T02:03:58.875Z,96.86
2023-04-18T02:08:59.629Z,96.92
2023-04-18T02:14:00.330Z,97.13
2023-04-18T02:19:01.079Z,96.41
2023-04-18T02:24:01.789Z,96.51
2023-04-18T02:29:02.503Z,96.45
2023-04-18T02:34:03.205Z,97.17
2023-04-18T02:39:03.971Z,96.20
2023-04-18T02:44:04.667Z,96.30
2023-04-18T02:49:05.376Z,95.99
2023-04-18T02:54:06.099Z,96.20
2023-04-18T02:59:06.908Z,95.89
2023-04-18T03:04:07.566Z,95.73
2023-04-18T03:09:08.287Z,95.83
2023-04-18T03:14:09.015Z,95.57
2023-04-18T03:19:09.705Z,95.17
2023-04-18T03:24:12.196Z,94.75
2023-04-18T03:29:11.079Z,94.90
2023-04-18T03:34:18.727Z,95.42
2023-04-18T03:39:12.393Z,95.62
2023-04-18T03:44:13.321Z,95.10
2023-04-18T03:49:13.605Z,95.06
2023-04-18T03:54:14.501Z,95.42
2023-04-18T03:59:14.744Z,95.21
2023-04-18T04:04:15.930Z,95.42
2023-04-18T04:09:16.259Z,95.42
2023-04-18T04:14:16.916Z,95.00
2023-04-18T04:19:17.576Z,95.04
2023-04-18T04:24:18.251Z,95.77
2023-04-18T04:29:19.025Z,95.67
2023-04-18T04:34:19.656Z,95.46
2023-04-18T04:39:20.337Z,95.46
2023-04-18T04:44:21.013Z,95.73
2023-04-18T04:49:21.677Z,95.56
2023-04-18T04:54:22.332Z,98.27
2023-04-18T04:59:22.999Z,94.60
2023-04-18T05:04:23.720Z,93.41
2023-04-18T05:09:24.374Z,93.62
2023-04-18T05:14:24.996Z,92.19
2023-04-18T05:19:25.659Z,92.48
2023-04-18T05:24:26.331Z,92.95
2023-04-18T05:29:27.031Z,92.08
2023-04-18T05:34:27.660Z,91.67
2023-04-18T05:39:28.338Z,90.64
2023-04-18T05:44:28.995Z,91.36
2023-04-18T05:49:29.691Z,90.64
2023-04-18T05:54:30.346Z,91.67
2023-04-18T05:59:31.002Z,90.59
2023-04-18T06:04:32.016Z,90.59
2023-04-18T06:09:32.290Z,90.91
2023-04-18T06:14:32.930Z,89.83
2023-04-18T06:19:33.565Z,89.83
2023-04-18T06:24:34.256Z,90.35
2023-04-18T06:29:36.159Z,89.07
2023-04-18T06:34:35.471Z,88.76
2023-04-18T06:39:36.263Z,88.51
2023-04-18T06:44:36.861Z,88.31
2023-04-18T06:49:37.561Z,87.27
2023-04-18T06:54:38.397Z,88.20
2023-04-18T06:59:39.041Z,88.31
2023-04-18T07:04:39.773Z,86.79
2023-04-18T07:09:40.574Z,85.10
2023-04-18T07:14:41.275Z,86.16
2023-04-18T07:19:41.961Z,85.68
2023-04-18T07:24:42.719Z,85.57
2023-04-18T07:29:43.384Z,84.81
2023-04-18T07:34:44.114Z,83.13
2023-04-18T07:39:44.885Z,82.41
2023-04-18T07:44:45.485Z,82.37
2023-04-18T07:49:46.149Z,82.06
2023-04-18T07:54:46.952Z,80.65
2023-04-18T07:59:47.557Z,80.00
2023-04-18T08:04:48.372Z,78.94
2023-04-18T08:09:49.187Z,80.07
2023-04-18T08:14:49.804Z,80.82
2023-04-18T08:19:50.460Z,82.40
2023-04-18T08:29:52.672Z,81.74
2023-04-18T08:34:52.366Z,80.07
2023-04-18T08:39:53.063Z,80.88
2023-04-18T08:44:53.798Z,79.21
2023-04-18T08:49:54.399Z,78.97
2023-04-18T08:54:55.072Z,78.05
2023-04-18T08:59:55.842Z,78.45
2023-04-18T09:04:56.502Z,78.80
2023-04-18T09:09:57.245Z,78.11
2023-04-18T09:14:57.998Z,77.05
2023-04-18T09:19:58.620Z,76.20
2023-04-18T09:24:59.277Z,75.34
2023-04-18T09:29:59.943Z,75.31
2023-04-18T09:35:07.700Z,75.00
2023-04-18T09:40:01.272Z,74.59
2023-04-18T09:45:01.985Z,74.63
2023-04-18T09:50:02.619Z,74.93
2023-04-18T09:55:03.432Z,74.84
2023-04-18T10:00:04.064Z,74.80
2023-04-18T10:05:04.844Z,73.71
2023-04-18T10:10:05.521Z,73.60
2023-04-18T10:15:06.179Z,73.27
2023-04-18T10:20:06.818Z,73.60
2023-04-18T10:25:07.476Z,72.96
2023-04-18T10:30:09.197Z,75.17
2023-04-18T10:35:08.986Z,74.22
2023-04-18T10:40:09.617Z,73.13
2023-04-18T10:45:10.236Z,72.75
2023-04-18T10:50:11.077Z,73.54
2023-04-18T10:55:11.685Z,72.62
2023-04-18T11:00:12.349Z,72.89
2023-04-18T11:05:13.207Z,73.33
2023-04-18T11:10:13.852Z,73.77
2023-04-18T11:15:14.612Z,72.79
2023-04-18T11:20:15.242Z,72.24
2023-04-18T11:25:15.911Z,72.17
2023-04-18T11:30:16.605Z,71.73
2023-04-18T11:35:17.234Z,70.75
2023-04-18T11:40:18.023Z,70.68
2023-04-18T11:45:18.690Z,70.68
2023-04-18T11:50:19.362Z,71.16
2023-04-18T11:55:20.028Z,70.95
2023-04-18T12:00:20.718Z,71.91
2023-04-18T12:05:21.694Z,72.31
2023-04-18T12:10:21.949Z,72.48
2023-04-18T12:15:22.723Z,71.02
2023-04-18T12:20:23.410Z,71.43
2023-04-18T12:25:27.129Z,71.12
2023-04-18T12:30:24.611Z,72.45
2023-04-18T12:35:25.493Z,72.38
2023-04-18T12:40:26.102Z,71.19
2023-04-18T12:45:26.772Z,71.09
2023-04-18T12:50:27.439Z,71.09
2023-04-18T12:55:28.183Z,71.09
2023-04-18T13:00:28.916Z,70.79
2023-04-18T13:05:32.971Z,71.36
2023-04-18T13:10:30.406Z,71.06
2023-04-18T13:15:31.026Z,70.55
2023-04-18T13:20:31.693Z,70.35
2023-04-18T13:25:32.362Z,70.86
2023-04-18T13:30:33.055Z,70.55
2023-04-18T13:35:33.738Z,69.94
2023-04-18T13:40:34.388Z,69.02
2023-04-18T13:45:35.136Z,69.33
2023-04-18T13:50:35.759Z,68.69
2023-04-18T13:55:36.413Z,68.18
2023-04-18T14:00:37.069Z,67.54
2023-04-18T14:05:37.802Z,67.13
2023-04-18T14:10:38.403Z,67.44
2023-04-18T14:15:39.171Z,67.03
2023-04-18T14:20:39.858Z,66.83
2023-04-18T14:25:40.498Z,66.83
2023-04-18T14:30:41.187Z,66.83
2023-04-18T14:35:41.894Z,66.83
2023-04-18T14:40:42.498Z,67.20
2023-04-18T14:45:43.191Z,67.64
2023-04-18T14:50:43.878Z,68.76
2023-04-18T14:55:44.503Z,69.09
2023-04-18T15:00:45.167Z,69.70
2023-04-18T15:05:45.837Z,69.43
2023-04-18T15:10:46.526Z,68.62
2023-04-18T15:15:47.161Z,68.11
2023-04-18T15:20:47.839Z,67.80
2023-04-18T15:25:48.480Z,68.01
2023-04-18T15:30:49.197Z,67.50
2023-04-18T15:35:56.827Z,66.99
2023-04-18T15:40:50.451Z,66.79
2023-04-18T15:45:51.167Z,66.18
2023-04-18T15:50:51.796Z,66.49
2023-04-18T15:55:52.430Z,66.38
2023-04-18T16:00:53.089Z,65.88
2023-04-18T16:05:53.749Z,65.80
2023-04-18T16:10:54.491Z,65.09
2023-04-18T16:15:55.177Z,64.89
2023-04-18T16:20:55.817Z,64.28
2023-04-18T16:25:56.461Z,64.11
2023-04-18T16:30:57.194Z,64.31
2023-04-18T16:35:57.796Z,64.51
2023-04-18T16:40:58.451Z,64.61
2023-04-18T16:45:59.142Z,64.92
2023-04-18T16:50:59.844Z,63.93
2023-04-18T16:56:00.518Z,64.03
2023-04-18T17:01:01.213Z,63.73
2023-04-18T17:06:01.903Z,63.65
2023-04-18T17:11:02.555Z,63.76
2023-04-18T17:16:03.414Z,63.96
2023-04-18T17:21:04.106Z,65.22
2023-04-18T17:26:04.755Z,66.13
2023-04-18T17:31:05.457Z,66.67
2023-04-18T17:36:06.369Z,67.41
2023-04-18T17:41:07.056Z,68.26
2023-04-18T17:46:07.806Z,68.67
2023-04-18T17:51:08.468Z,68.80
2023-04-18T17:56:09.133Z,69.42
2023-04-18T18:01:09.842Z,69.73
2023-04-18T18:06:10.462Z,69.86
2023-04-18T18:11:11.127Z,69.04
2023-04-18T18:16:11.816Z,68.77
2023-04-18T18:21:12.467Z,68.49
2023-04-18T18:26:13.131Z,68.60
2023-04-18T18:31:13.845Z,68.93
2023-04-18T18:36:14.533Z,69.34
2023-04-18T18:41:15.209Z,69.45
2023-04-18T18:46:15.971Z,69.17
2023-04-18T18:51:16.682Z,68.46
2023-04-18T18:56:17.384Z,67.97
2023-04-18T19:01:18.146Z,68.79
2023-04-18T19:06:18.838Z,69.51
2023-04-18T19:11:19.565Z,68.93
2023-04-18T19:16:20.311Z,67.73
2023-04-18T19:21:20.999Z,67.66
2023-04-18T19:26:21.730Z,67.97
2023-04-18T19:31:22.510Z,68.27
2023-04-18T19:36:23.218Z,68.92
2023-04-18T19:41:23.931Z,69.43
2023-04-18T19:46:24.719Z,70.08
2023-04-18T19:51:25.457Z,70.80
2023-04-18T19:56:26.163Z,71.31
2023-04-18T20:01:26.890Z,72.06
2023-04-18T20:06:27.609Z,72.68
2023-04-18T20:11:28.300Z,73.54
2023-04-18T20:16:29.193Z,74.08
2023-04-18T20:21:29.925Z,74.70
2023-04-18T20:26:30.623Z,75.21
2023-04-18T20:31:31.393Z,75.46
2023-04-18T20:36:32.142Z,75.97
2023-04-18T20:41:32.861Z,76.38
2023-04-18T20:46:33.615Z,76.83
2023-04-18T20:51:34.315Z,77.34
2023-04-18T20:56:35.105Z,78.20
2023-04-18T21:01:37.186Z,78.72
2023-04-18T21:06:36.502Z,79.37
2023-04-18T21:11:37.390Z,80.09
2023-04-18T21:16:38.239Z,80.40
2023-04-18T21:21:38.532Z,81.26
2023-04-18T21:26:39.288Z,81.88
2023-04-18T21:31:40.143Z,82.29
2023-04-18T21:36:40.826Z,82.54
2023-04-18T21:41:41.667Z,82.84
2023-04-18T21:46:42.425Z,82.95
2023-04-18T21:51:43.129Z,83.19
2023-04-18T21:56:43.878Z,82.98
2023-04-18T22:01:51.625Z,82.61
2023-04-18T22:06:45.406Z,82.40
2023-04-18T22:11:46.055Z,82.10
2023-04-18T22:16:46.812Z,81.51
2023-04-18T22:21:47.587Z,81.10
2023-04-18T22:26:48.247Z,80.69
2023-04-18T22:31:48.980Z,79.66
2023-04-18T22:36:49.704Z,79.55
2023-04-18T22:41:50.414Z,78.63
2023-04-18T22:46:51.127Z,78.35
2023-04-18T22:51:51.907Z,78.14
2023-04-18T22:56:52.568Z,78.08
2023-04-18T23:01:53.306Z,77.77
2023-04-18T23:06:53.999Z,76.70
2023-04-18T23:11:54.836Z,76.29
2023-04-18T23:16:55.504Z,76.08
2023-04-18T23:21:56.221Z,75.36
2023-04-18T23:26:56.978Z,74.95
2023-04-18T23:31:57.810Z,74.12
2023-04-18T23:36:58.480Z,73.19
2023-04-18T23:41:59.208Z,72.57
2023-04-18T23:46:59.919Z,71.64
2023-04-18T23:52:00.628Z,70.99
2023-04-18T23:57:01.423Z,70.17
